Tiempo atmosférico en la estación meteorológica de El Pinar, La Dehesa, Santa Cruz de Tenerife (715 m.)



Fecha
DESCASC
Temp. máxima en grados centígrados (hora)
DESCASC
Temp. mínima en grados centígrados (hora)
DESCASC
Temp. media en grados centígrados
DESCASC
Racha de viento máxima en m/sg (hora)
DESCASC
Velocidad máxima media en intervalos de 10 minutos(hora)
DESCASC
Precipitaciones diarias en mm
DESCASC
Precipitaciones de 00:00 a 06:00 en mm
DESCASC
Precipitaciones de 06:00 a 12:00 en mm
DESCASC
Precipitaciones de 12:00 a 18:00 en mm
DESCASC
Precipitaciones de 18:00 a 24:00 en mm
DESCASC
23-06-2019 23.5 (14:10) 15.8 (01:40) 19.7 11.39 (22:10) 6.94 (21:50) 0 0 0 0 0
22-06-2019 22.5 (18:00) 15 (03:50) 18.8 12.78 (16:50) 6.11 (16:30) 0 0 0 0 0
21-06-2019 21.3 (15:30) 15.2 (06:40) 18.2 14.44 (10:00) 7.78 (09:40) 0 0 0 0 0
20-06-2019 22 (15:40) 15.1 (00:00) 18.6 13.33 (06:40) 7.5 (07:20) 0 0 0 0 0
19-06-2019 23 (18:50) 14.2 (00:00) 18.6 10.28 (18:00) 4.44 (00:10) 0 0 0 0 0
18-06-2019 22.3 (13:10) 15.9 (00:00) 19.1 10 (15:40) 6.67 (07:30) 0 0 0 0 0
17-06-2019 22.5 (16:10) 13.3 (00:00) 17.9 10.83 (15:10) 7.78 (17:40) 0 0 0 0 0
16-06-2019 19.5 (17:50) 11.7 (00:00) 15.6 8.33 (18:40) 4.44 (08:10) 0 0 0 0 0
15-06-2019 17.8 (14:40) 11 (00:00) 14.4 5.28 (15:20) 3.61 (23:00) 0 0 0 0 0
14-06-2019 18.7 (16:00) 12 (00:00) 15.4 7.78 (00:20) 5.28 (00:20) 0 0 0 0 0
13-06-2019 19.6 (15:10) 13.2 (00:00) 16.4 10.83 (01:20) 6.11 (02:00) 0 0 0 0 0
12-06-2019 19.9 (18:10) 14.1 (00:00) 17 20.56 (01:20) 13.89 (01:10) 2.2 0.2 1.8 0.2 0
11-06-2019 18.6 (13:10) 13.1 (00:00) 15.9 23.61 (19:40) 15.83 (19:50) 0.2 0 0 0 0.2
10-06-2019 19.9 (15:40) 12.9 (00:00) 16.4 21.39 (14:10) 12.78 (07:10) 0 0 0 0 0
09-06-2019 18.9 (14:40) 12.7 (00:00) 15.8 20.83 (23:59) 13.61 (17:50) 0 0 0 0 0
08-06-2019 18.7 (11:30) 13.4 (00:00) 16.1 17.22 (22:30) 10 (22:30) 0.2 0 0.2 0 0
07-06-2019 20.6 (16:40) 13 (00:00) 16.8 14.44 (00:40) 8.33 (00:30) 0 0 0 0 0
06-06-2019 18.9 (15:50) 13.1 (00:00) 16 14.17 (05:30) 9.17 (23:30) 0 0 0 0 0
05-06-2019 20.5 (12:10) 14.4 (00:00) 17.4 19.72 (04:50) 13.06 (04:40) 0 0 0 0 0
04-06-2019 30.6 (12:20) 17 (00:00) 23.8 18.61 (01:00) 11.94 (00:10) 0 0 0 0 0
03-06-2019 30.6 (13:50) 22.9 (00:00) 26.8 19.44 (21:50) 13.06 (20:20) 0 0 0 0 0
02-06-2019 30.8 (14:10) 13.5 (00:00) 22.1 12.22 (22:40) 7.78 (22:30) 0 0 0 0 0
01-06-2019 25.8 (19:10) 15.1 (00:00) 20.4 12.5 (04:10) 8.33 (04:10) 0 0 0 0 0
31-05-2019 27.6 (18:10) 12.3 (00:00) 20 10.28 (01:00) 6.39 (01:10) 0 0 0 0 0
30-05-2019 22.7 (17:40) 11.3 (00:00) 17 6.39 (17:30) 4.17 (15:20) 0 0 0 0 0
29-05-2019 20.5 (16:40) 13.2 (00:00) 16.8 6.39 (12:00) 3.89 (12:10) 0 0 0 0 0
28-05-2019 23.9 (15:30) 14.3 (00:00) 19.1 13.61 (01:50) 8.61 (02:00) 0 0 0 0 0
27-05-2019 26.2 (15:50) 15.5 (00:00) 20.9 13.89 (18:10) 8.33 (19:20) 0 0 0 0 0
26-05-2019 22.4 (16:20) 11.6 (00:00) 17 21.39 (00:30) 15 (00:50) 0 0 0 0 0
25-05-2019 21.3 (03:50) 13.6 (00:00) 17.4 20.83 (21:40) 13.89 (21:30) 0 0 0 0 0

Gráficas

Temp. máximas Temp. mínimas Temp. medias Precipitaciones Rachas de viento máximas Velocidades máximas media en intervalos de 10 minutos

Datos horarios

Fecha y hora oficial Temperatura (ºC) Velocidad del viento (km/h) Dirección del viento Racha (km/h) Dirección de racha Precipitación (mm) Presión (hPa) Tendencia (hPa) Humedad (%)
2019-06-23 23:00:00 17.6 19 Este 41 Nordeste 0 -- -- 84
2019-06-23 22:00:00 17.9 24 Nordeste 37 Nordeste 0 -- -- 83
2019-06-23 21:00:00 18.2 19 Este 37 Este 0 -- -- 82
2019-06-23 20:00:00 18.8 22 Nordeste 36 Este 0 -- -- 81
2019-06-23 19:00:00 20 21 Nordeste 33 Nordeste 0 -- -- 77
2019-06-23 18:00:00 20.5 22 Nordeste 33 Nordeste 0 -- -- 75
2019-06-23 17:00:00 22.4 21 Nordeste 33 Nordeste 0 -- -- 63
2019-06-23 16:00:00 21.4 22 Nordeste 39 Nordeste 0 -- -- 66
2019-06-23 15:00:00 22.5 18 Nordeste 28 Nordeste 0 -- -- 62
2019-06-23 14:00:00 23 13 Este 26 Nordeste 0 -- -- 60
2019-06-23 13:00:00 22.3 12 Nordeste 31 Nordeste 0 -- -- 61
2019-06-23 12:00:00 21.3 17 Nordeste 30 Nordeste 0 -- -- 63
2019-06-23 11:00:00 20.8 13 Este 22 Este 0 -- -- 65
2019-06-23 10:00:00 20.3 9 Este 32 Sudeste 0 -- -- 67
2019-06-23 09:00:00 17.6 10 Este 31 Este 0 -- -- 79
2019-06-23 08:00:00 16.3 8 Nordeste 28 Este 0 -- -- 82
2019-06-23 07:00:00 16.5 10 Sudeste 28 Nordeste 0 -- -- 79
2019-06-23 06:00:00 16.2 11 Sudeste 34 Sudeste 0 -- -- 79
2019-06-23 05:00:00 16.4 14 Sudeste 38 Este 0 -- -- 78
2019-06-23 04:00:00 16.4 14 Sudeste 35 Sudeste 0 -- -- 80
2019-06-23 03:00:00 16.3 12 Sudeste 37 Sudeste 0 -- -- 80
2019-06-23 02:00:00 16.2 12 Sudeste 31 Sur 0 -- -- 79
2019-06-23 01:00:00 16.2 14 Sudeste 36 Este 0 -- -- 77
2019-06-23 00:00:00 16.4 16 Sudeste 35 Este 0 -- -- 76
2019-06-22 23:00:00 16.2 18 Sudeste 36 Sudeste -- -- -- 78
2019-06-22 22:00:00 16.5 17 Sudeste 42 Este 0 -- -- 79
2019-06-22 21:00:00 16.7 14 Sudeste 35 Sudeste 0 -- -- 81
2019-06-22 20:00:00 18.5 13 Sudeste 30 Sudeste 0 -- -- 74
2019-06-22 19:00:00 18.9 19 Este 40 Este 0 -- -- 74
2019-06-22 18:00:00 22.5 11 Sudoeste 33 Este 0 -- -- 66
2019-06-22 17:00:00 21.5 19 Este 46 Sudeste 0 -- -- 64
2019-06-22 16:00:00 20.4 19 Este 44 Nordeste 0 -- -- 67
2019-06-22 15:00:00 20.4 9 Sudoeste 33 Este 0 -- -- 70
2019-06-22 14:00:00 21.3 11 Sudoeste 22 Sudoeste 0 -- -- 65
2019-06-22 13:00:00 22.1 6 Sudoeste 18 Oeste 0 -- -- 63
2019-06-22 12:00:00 19.8 8 Sudoeste 21 Norte 0 -- -- 72
2019-06-22 11:00:00 20.6 9 Sur 34 Sudeste 0 -- -- 66
2019-06-22 10:00:00 19.7 6 Sudoeste 26 Sudeste 0 -- -- 67
2019-06-22 09:00:00 17 13 Sudeste 26 Sudeste 0 -- -- 66
2019-06-22 08:00:00 15.9 10 Sudeste 25 Sudeste 0 -- -- 62
2019-06-22 07:00:00 15.7 9 Sudeste 24 Sudeste 0 -- -- 57
2019-06-22 06:00:00 15.8 8 Sudeste 21 Sudeste 0 -- -- 53
2019-06-22 05:00:00 15.6 8 Sudeste 33 Este 0 -- -- 61
2019-06-22 04:00:00 15 8 Este 27 Sudeste 0 -- -- 80
2019-06-22 03:00:00 16.4 4 Sur 15 Sudeste 0 -- -- 56
2019-06-22 02:00:00 15.8 10 Sudeste 32 Este 0 -- -- 73
2019-06-22 01:00:00 15.8 13 Sudeste 35 Sudeste 0 -- -- 80
2019-06-22 00:00:00 16 12 Sudeste 29 Sur 0 -- -- 81
2019-06-21 23:00:00 16.1 12 Sudeste 39 Sudeste 0 -- -- 81
2019-06-21 22:00:00 16.2 12 Sudeste 32 Este 0 -- -- 86
2019-06-21 21:00:00 16.7 12 Sudeste 26 Sudeste 0 -- -- 84
2019-06-21 20:00:00 17.1 9 Este 42 Sudeste 0 -- -- 80
2019-06-21 19:00:00 17.3 15 Este 43 Sudeste 0 -- -- 82
2019-06-21 18:00:00 18.8 10 Sudeste 37 Sudeste 0 -- -- 75
2019-06-21 17:00:00 19.2 12 Sudeste 31 Este 0 -- -- 70
2019-06-21 16:00:00 20 14 Este 38 Sudeste 0 -- -- 67
2019-06-21 15:00:00 20.6 13 Sudeste 36 Sudeste 0 -- -- 63
2019-06-21 14:00:00 20.8 13 Sudeste 35 Este 0 -- -- 64
2019-06-21 13:00:00 20.7 12 Sudeste 30 Sudeste 0 -- -- 65
2019-06-21 12:00:00 18.9 6 Sudoeste 17 Sudoeste 0 -- -- 75
2019-06-21 11:00:00 19.4 13 Sur 51 Este 0 -- -- 71
2019-06-21 10:00:00 17.1 26 Este 52 Sudeste 0 -- -- 79
2019-06-21 09:00:00 16.1 24 Sudeste 41 Este 0 -- -- 81
2019-06-21 08:00:00 15.6 10 Sudeste 25 Sudeste 0 -- -- 70
2019-06-21 07:00:00 16 11 Sudeste 28 Sudeste 0 -- -- 67
2019-06-21 06:00:00 16 11 Este 26 Sudeste 0 -- -- 81
2019-06-21 05:00:00 15.8 12 Este 31 Sudeste 0 -- -- 88
2019-06-21 04:00:00 15.8 16 Sudeste 42 Sudeste 0 -- -- 84
2019-06-21 03:00:00 15.7 15 Sudeste 36 Este 0 -- -- 81
2019-06-21 02:00:00 15.5 8 Sur 33 Sudeste 0 -- -- 75
2019-06-21 01:00:00 15.9 13 Sudeste 36 Sudeste 0 -- -- 82
2019-06-21 00:00:00 16.2 15 Este 30 Este 0 -- -- 83
2019-06-20 23:00:00 15.9 8 Sudeste 30 Sudeste 0 -- -- 73
2019-06-20 22:00:00 16.4 10 Sudeste 32 Este 0 -- -- 80
2019-06-20 21:00:00 17 13 Sudeste 32 Este 0 -- -- 72
2019-06-20 20:00:00 16.7 19 Este 46 Sudeste 0 -- -- 84
2019-06-20 19:00:00 17.4 16 Este 35 Este 0 -- -- 81
2019-06-20 18:00:00 20.2 18 Este 31 Este 0 -- -- 63
2019-06-20 17:00:00 21.7 14 Este 36 Este 0 -- -- 55
2019-06-20 16:00:00 21.6 14 Este 32 Sudeste 0 -- -- 57
2019-06-20 15:00:00 20.5 9 Sudoeste 35 Nordeste 0 -- -- 66
2019-06-20 14:00:00 20.8 12 Sudeste 36 Este 0 -- -- 58
2019-06-20 13:00:00 21.4 10 Este 31 Este 0 -- -- 54
2019-06-20 12:00:00 20.4 15 Sudeste 31 Este 0 -- -- 59
2019-06-20 11:00:00 19.3 10 Este 30 Sudeste 0 -- -- 65
2019-06-20 10:00:00 18.9 12 Este 37 Este 0 -- -- 63
2019-06-20 09:00:00 16.7 14 Este 39 Este 0 -- -- 72
2019-06-20 08:00:00 15.7 21 Este 47 Sudeste 0 -- -- 78
2019-06-20 07:00:00 15.7 25 Este 48 Sudeste 0 -- -- 77
2019-06-20 06:00:00 15.6 24 Este 41 Sudeste 0 -- -- 78
2019-06-20 05:00:00 16.1 20 Este 44 Sudeste 0 -- -- 78
2019-06-20 04:00:00 15.3 19 Este 37 Sudeste 0 -- -- 77
2019-06-20 03:00:00 15.3 21 Este 36 Este 0 -- -- 87
2019-06-20 02:00:00 15.1 9 Este 21 Nordeste 0 -- -- 83
2019-06-20 01:00:00 15.8 11 Este 26 Sudeste 0 -- -- 77
2019-06-20 00:00:00 15.7 9 Este 23 Sudeste 0 -- -- 75
2019-06-19 23:00:00 16.3 8 Este 29 Sudeste 0 -- -- 78
2019-06-19 22:00:00 16.3 10 Sudeste 27 Sudeste 0 -- -- 81
2019-06-19 21:00:00 17.3 8 Este 35 Sudeste 0 -- -- 73
2019-06-19 20:00:00 21.6 6 Sur 31 Sudeste 0 -- -- 60
2019-06-19 19:00:00 21.8 8 Sudoeste 34 Sudeste 0 -- -- 59
2019-06-19 18:00:00 20.2 16 Sudeste 37 Nordeste 0 -- -- 66
2019-06-19 17:00:00 21.4 11 Este 28 Este 0 -- -- 62
2019-06-19 16:00:00 18.4 9 Este 24 Este 0 -- -- 79
2019-06-19 15:00:00 19.3 11 Este 31 Este 0 -- -- 76
2019-06-19 14:00:00 19.5 13 Este -- -- -- -- -- 75
2019-06-19 13:00:00 -- -- -- -- -- -- -- -- --
2019-06-19 12:00:00 -- -- -- -- -- -- -- -- --
2019-06-19 11:00:00 -- -- -- -- -- -- -- -- --
2019-06-19 10:00:00 -- -- -- -- -- -- -- -- --
2019-06-19 09:00:00 -- -- -- -- -- -- -- -- --
2019-06-19 08:00:00 -- -- -- -- -- -- -- -- --
2019-06-19 07:00:00 -- -- -- -- -- -- -- -- --
2019-06-19 06:00:00 -- -- -- -- -- -- -- -- --
2019-06-19 05:00:00 -- -- -- -- -- -- -- -- --
2019-06-19 04:00:00 -- -- -- -- -- -- -- -- --
2019-06-19 03:00:00 -- -- -- -- -- -- -- -- --
2019-06-19 02:00:00 -- -- -- -- -- -- -- -- --
2019-06-19 01:00:00 -- -- -- -- -- -- -- -- --
2019-06-19 00:00:00 -- -- -- -- -- -- -- -- --
2019-06-18 23:00:00 -- -- -- -- -- -- -- -- --
2019-06-18 22:00:00 -- -- -- -- -- -- -- -- --
2019-06-18 21:00:00 -- -- -- -- -- -- -- -- --
2019-06-18 20:00:00 -- -- -- -- -- -- -- -- --
2019-06-18 19:00:00 -- -- -- -- -- -- -- -- --
2019-06-18 18:00:00 19.8 8 Oeste 21 Oeste 0 -- -- 78
2019-06-18 17:00:00 21.1 11 Oeste 25 Sudoeste 0 -- -- 74
2019-06-18 16:00:00 20.6 14 Oeste 36 Sudoeste 0 -- -- 77
2019-06-18 15:00:00 20.6 12 Oeste 23 Nordeste 0 -- -- 77
2019-06-18 14:00:00 21.1 10 Este 27 Este 0 -- -- 65
2019-06-18 13:00:00 21.6 15 Nordeste 30 Nordeste 0 -- -- 64
2019-06-18 12:00:00 21 13 Nordeste 25 Nordeste 0 -- -- 67
2019-06-18 11:00:00 19.2 14 Nordeste 23 Nordeste 0 -- -- 79
2019-06-18 10:00:00 17.5 13 Nordeste 26 Nordeste 0 -- -- 90
2019-06-18 09:00:00 16.9 20 Nordeste 31 Este 0 -- -- 92
2019-06-18 08:00:00 17.1 20 Nordeste 34 Este 0 -- -- 91
2019-06-18 07:00:00 17.1 19 Este 35 Este 0 -- -- 85
2019-06-18 06:00:00 16.8 20 Nordeste 30 Este 0 -- -- 88
2019-06-18 05:00:00 17 18 Nordeste 33 Este 0 -- -- 87
2019-06-18 04:00:00 16.5 18 Nordeste 31 Nordeste 0 -- -- 86
2019-06-18 03:00:00 16.7 18 Nordeste 32 Este 0 -- -- 84
2019-06-18 02:00:00 16.7 19 Nordeste 31 Este 0 -- -- 83
2019-06-18 01:00:00 17.7 21 Nordeste 34 Este 0 -- -- 74
2019-06-18 00:00:00 17.7 24 Nordeste 33 Este 0 -- -- 75
2019-06-17 23:00:00 17 23 Nordeste 34 Este 0 -- -- 89
2019-06-17 22:00:00 17 24 Nordeste 33 Nordeste 0 -- -- 89
2019-06-17 21:00:00 17.4 19 Nordeste 28 Este 0 -- -- 88
2019-06-17 20:00:00 17.8 18 Nordeste 33 Nordeste 0 -- -- 84
2019-06-17 19:00:00 18.5 23 Nordeste 38 Este 0 -- -- 79
2019-06-17 18:00:00 20.8 24 Nordeste 39 Nordeste 0 -- -- 69
2019-06-17 17:00:00 21 26 Nordeste 38 Nordeste 0 -- -- 65
2019-06-17 16:00:00 20.8 27 Nordeste 39 Nordeste 0 -- -- 61
2019-06-17 15:00:00 20.7 26 Nordeste 36 Norte 0 -- -- 58
2019-06-17 14:00:00 20.7 25 Nordeste 39 Nordeste 0 -- -- 64
2019-06-17 13:00:00 20.6 23 Nordeste 34 Nordeste 0 -- -- 67
2019-06-17 12:00:00 19.5 20 Norte 30 Norte 0 -- -- 74
2019-06-17 11:00:00 19.2 19 Nordeste 28 Norte 0 -- -- 73
2019-06-17 10:00:00 18.3 17 Nordeste 23 Nordeste 0 -- -- 73
2019-06-17 09:00:00 16.1 16 Nordeste 23 Nordeste 0 -- -- 81
2019-06-17 08:00:00 14.6 13 Nordeste 20 Nordeste 0 -- -- 80
2019-06-17 07:00:00 14.7 14 Nordeste 20 Nordeste 0 -- -- 71
2019-06-17 06:00:00 13.7 13 Nordeste 16 Nordeste 0 -- -- 92
2019-06-17 05:00:00 13.6 9 Nordeste 11 Nordeste 0 -- -- 90
2019-06-17 04:00:00 13.6 5 Nordeste 10 Este 0 -- -- 87
2019-06-17 03:00:00 13.7 7 Este 8 Nordeste 0 -- -- 80
2019-06-17 02:00:00 14.8 5 Este 14 Este 0 -- -- 63
2019-06-17 01:00:00 14.6 5 Sudoeste 8 Este 0 -- -- 76
2019-06-17 00:00:00 15.4 3 Sudoeste 23 Este 0 -- -- 69
2019-06-16 23:00:00 14.1 13 Este 16 Este 0 -- -- 74
2019-06-16 22:00:00 14.5 3 Nordeste 12 Sur 0 -- -- 85
2019-06-16 21:00:00 17.1 5 Sudoeste 17 Noroeste 0 -- -- 75
2019-06-16 20:00:00 18.8 10 Noroeste 19 Noroeste 0 -- -- 69
2019-06-16 19:00:00 18.3 9 Oeste 30 Noroeste 0 -- -- 73
2019-06-16 18:00:00 18.9 9 Oeste 24 Noroeste 0 -- -- 68
2019-06-16 17:00:00 18.5 9 Noroeste 18 Oeste 0 -- -- 71
2019-06-16 16:00:00 18.6 9 Sudoeste 20 Oeste 0 -- -- 71
2019-06-16 15:00:00 18.5 9 Oeste 17 Oeste 0 -- -- 72
2019-06-16 14:00:00 19 9 Sudoeste 17 Noroeste 0 -- -- 69
2019-06-16 13:00:00 18.2 9 Oeste 17 Oeste 0 -- -- 71
2019-06-16 12:00:00 17.9 10 Sudoeste 23 Noroeste 0 -- -- 71
2019-06-16 11:00:00 17.9 10 Norte 23 Norte 0 -- -- 59
2019-06-16 10:00:00 16.7 6 Oeste 16 Este 0 -- -- 71
2019-06-16 09:00:00 15.5 11 Este 22 Este 0 -- -- 66
2019-06-16 08:00:00 13.6 15 Este 20 Este 0 -- -- 70
2019-06-16 07:00:00 12.4 11 Este 15 Este 0 -- -- 73
2019-06-16 06:00:00 12.3 12 Este 17 Este 0 -- -- 74
2019-06-16 05:00:00 12 13 Este 16 Este 0 -- -- 75
2019-06-16 04:00:00 11.7 3 Este 13 Sur 0 -- -- 83
2019-06-16 03:00:00 11.9 9 Sur 13 Sur 0 -- -- 85
2019-06-16 02:00:00 12.4 4 Sudeste 13 Este 0 -- -- 76
2019-06-16 01:00:00 12.7 10 Este 13 Este 0 -- -- 74
2019-06-16 00:00:00 12.9 0 Calma 18 Este 0 -- -- 72
2019-06-15 23:00:00 13.2 13 Este 16 Este 0 -- -- 71
2019-06-15 22:00:00 13.4 11 Este 18 Este 0 -- -- 82
2019-06-15 21:00:00 15.8 6 Norte 16 Norte 0 -- -- 78
2019-06-15 20:00:00 16.4 6 Oeste 15 Sudoeste 0 -- -- 76
2019-06-15 19:00:00 16.3 7 Sudoeste 15 Noroeste 0 -- -- 76
2019-06-15 18:00:00 16.6 5 Oeste 18 Sudoeste 0 -- -- 73
2019-06-15 17:00:00 16.7 9 Sudoeste 18 Oeste 0 -- -- 71
2019-06-15 16:00:00 17.3 10 Sudoeste 19 Este 0 -- -- 72
2019-06-15 15:00:00 17.5 6 Nordeste 17 Sudoeste 0 -- -- 69
2019-06-15 14:00:00 15.4 10 Oeste 14 Oeste 0 -- -- 82
2019-06-15 13:00:00 15.3 7 Noroeste 18 Oeste 0 -- -- 81
2019-06-15 12:00:00 15.9 7 Noroeste 17 Noroeste 0 -- -- 77
2019-06-15 11:00:00 15.8 6 Oeste 13 Oeste 0 -- -- 79
2019-06-15 10:00:00 15.3 6 Sudoeste 13 Sudoeste 0 -- -- 77
2019-06-15 09:00:00 15 5 Oeste 9 Sudoeste 0 -- -- 75
2019-06-15 08:00:00 13.8 0 Calma 5 Este 0 -- -- 82
2019-06-15 07:00:00 13.5 0 Calma 9 Sur 0 -- -- 84
2019-06-15 06:00:00 13.2 4 Nordeste 10 Sudeste 0 -- -- 84
2019-06-15 05:00:00 13.3 6 Sur 12 Sur 0 -- -- 82
2019-06-15 04:00:00 12.8 8 Sur 12 Sur 0 -- -- 76
2019-06-15 03:00:00 11.6 7 Sur 9 Sudeste 0 -- -- 83
2019-06-15 02:00:00 11.7 6 Este 12 Sur 0 -- -- 88
2019-06-15 01:00:00 13 10 Sur 18 Sudeste 0 -- -- 85
2019-06-15 00:00:00 12.5 4 Sur 15 Sur 0 -- -- 84
2019-06-14 23:00:00 13.3 9 Sudeste 19 Sudeste 0 -- -- 68
2019-06-14 22:00:00 13.7 8 Este 20 Este 0 -- -- 81
2019-06-14 21:00:00 15.3 10 Este 21 Este 0 -- -- 77
2019-06-14 20:00:00 16.1 5 Nordeste 18 Este 0 -- -- 74
2019-06-14 19:00:00 15.9 9 Este 20 Este 0 -- -- 76
2019-06-14 18:00:00 17.3 10 Nordeste 22 Este 0 -- -- 66
2019-06-14 17:00:00 18 6 Nordeste 15 Nordeste 0 -- -- 62
2019-06-14 16:00:00 18.7 3 Este 13 Sudeste 0 -- -- 61
2019-06-14 15:00:00 17.4 3 Sudoeste 23 Este 0 -- -- 62
2019-06-14 14:00:00 16.8 8 Este 17 Norte 0 -- -- 66
2019-06-14 13:00:00 15.7 7 Noroeste 19 Norte 0 -- -- 79
2019-06-14 12:00:00 17.1 7 Este 17 Este 0 -- -- 64
2019-06-14 11:00:00 15.8 6 Oeste 13 Noroeste 0 -- -- 75
2019-06-14 10:00:00 16.3 6 Oeste 16 Sudeste 0 -- -- 71
2019-06-14 09:00:00 15.2 8 Este 20 Sudeste 0 -- -- 63
2019-06-14 08:00:00 13 14 Sudeste 26 Este 0 -- -- 67
2019-06-14 07:00:00 12.9 17 Sudeste 27 Este 0 -- -- 67
2019-06-14 06:00:00 12.6 9 Sudeste 20 Sudeste 0 -- -- 71
2019-06-14 05:00:00 12.7 12 Sudeste 19 Sudeste 0 -- -- 74
2019-06-14 04:00:00 12.2 4 Sudeste 17 Sur 0 -- -- 78
2019-06-14 03:00:00 12.7 6 Sudeste 23 Este 0 -- -- 74
2019-06-14 02:00:00 13.1 14 Este 26 Este 0 -- -- 72
2019-06-14 01:00:00 13.1 14 Este 28 Este 0 -- -- 75
2019-06-14 00:00:00 13.3 12 Sudeste 31 Este 0 -- -- 77
2019-06-13 23:00:00 13.8 17 Sudeste 28 Sudeste 0 -- -- 79
2019-06-13 22:00:00 14.3 9 Sudeste 18 Este 0 -- -- 79
2019-06-13 21:00:00 15.1 13 Este 26 Este 0 -- -- 77
2019-06-13 20:00:00 17.1 17 Este 34 Este 0 -- -- 66
2019-06-13 19:00:00 18 19 Este 32 Este 0 -- -- 61
2019-06-13 18:00:00 19.5 14 Este 27 Este 0 -- -- 60
2019-06-13 17:00:00 17.6 14 Este 24 Este 0 -- -- 66
2019-06-13 16:00:00 18.9 6 Este 15 Nordeste 0 -- -- 63
2019-06-13 15:00:00 19.5 11 Nordeste 24 Este 0 -- -- 58
2019-06-13 14:00:00 19.1 6 Sudoeste 21 Sur 0 -- -- 62
2019-06-13 13:00:00 18 10 Este 22 Este 0 -- -- 65
2019-06-13 12:00:00 16 13 Este 25 Sudeste 0 -- -- 73
2019-06-13 11:00:00 16.2 9 Este 30 Sudeste 0 -- -- 73
2019-06-13 10:00:00 15.7 14 Sudeste 28 Sudeste 0 -- -- 73
2019-06-13 09:00:00 14.7 5 Sudeste 23 Este 0 -- -- 74
2019-06-13 08:00:00 13.9 11 Sudeste 35 Sudeste 0 -- -- 72
2019-06-13 07:00:00 13.2 17 Sudeste 37 Nordeste 0 -- -- 81
2019-06-13 06:00:00 13.5 12 Este 31 Este 0 -- -- 83
2019-06-13 05:00:00 13.4 11 Este 38 Este 0 -- -- 88
2019-06-13 04:00:00 13.5 13 Sudeste 33 Este 0 -- -- 88
2019-06-13 03:00:00 13.6 18 Sudeste 31 Sudeste 0 -- -- 88
2019-06-13 02:00:00 14 22 Sudeste 39 Este 0 -- -- 85
2019-06-13 01:00:00 14.4 15 Este 33 Sudeste 0 -- -- 86
2019-06-13 00:00:00 14.6 18 Sudeste 39 Sudeste 0 -- -- 85
2019-06-12 23:00:00 14.9 11 Sudeste 30 Sudeste 0 -- -- 88
2019-06-12 22:00:00 14.7 11 Este 34 Este 0 -- -- 87
2019-06-12 21:00:00 15.2 20 Sudeste 40 Sudeste 0 -- -- 77
2019-06-12 20:00:00 17.6 17 Sudeste 37 Sudeste 0 -- -- 70
2019-06-12 19:00:00 19.5 10 Sudeste 39 Sudeste 0 -- -- 63
2019-06-12 18:00:00 19.1 14 Sudeste 33 Sudeste 0 -- -- 69
2019-06-12 17:00:00 19.8 14 Este 37 Este 0 -- -- 69
2019-06-12 16:00:00 18.4 19 Este 40 Este 0 -- -- 74
2019-06-12 15:00:00 16.6 24 Este 53 Este 0 -- -- 85
2019-06-12 14:00:00 16 33 Este 49 Este 0.2 -- -- 88
2019-06-12 13:00:00 18.7 20 Sudeste 44 Este 0 -- -- 74
2019-06-12 12:00:00 18.2 11 Sudeste 33 Sudeste 0 -- -- 79
2019-06-12 11:00:00 16.6 13 Sudeste 57 Este 0.2 -- -- 89
2019-06-12 10:00:00 14.9 30 Este 67 Este 0.6 -- -- 93
2019-06-12 09:00:00 14.6 20 Sudeste 47 Sudeste 0.4 -- -- 93
2019-06-12 08:00:00 14.6 8 Sur 46 Este 0.2 -- -- 93
2019-06-12 07:00:00 14.4 29 Este 66 Este 0.4 -- -- 92
2019-06-12 06:00:00 14.4 45 Este 71 Este 0.2 -- -- 91
2019-06-12 05:00:00 14.7 14 Sur 40 Sur 0 -- -- 91
2019-06-12 04:00:00 14.7 22 Sudeste 58 Sudeste 0 -- -- 87
2019-06-12 03:00:00 14.6 12 Sur 53 Este 0 -- -- 87
2019-06-12 02:00:00 14.4 40 Este 74 Este 0 -- -- 90
2019-06-12 01:00:00 14.8 45 Este 71 Este 0 -- -- 88
2019-06-12 00:00:00 15 27 Este 66 Este 0 -- -- 88
2019-06-11 23:00:00 14.9 43 Este 71 Este 0.2 -- -- 89
2019-06-11 22:00:00 15.2 42 Este 68 Este 0 -- -- 85
2019-06-11 21:00:00 15.1 38 Este 72 Este 0 -- -- 92
2019-06-11 20:00:00 15.7 53 Este 85 Este 0 -- -- 87
2019-06-11 19:00:00 18.1 35 Este 56 Sudeste 0 -- -- 72
2019-06-11 18:00:00 17.9 32 Este 73 Este 0 -- -- 77
2019-06-11 17:00:00 17.1 40 Este 68 Este 0 -- -- 80
2019-06-11 16:00:00 17.1 36 Este 75 Este 0 -- -- 83
2019-06-11 15:00:00 17.9 43 Este 82 Este 0 -- -- 77
2019-06-11 14:00:00 17.5 49 Este 78 Este 0 -- -- 79
2019-06-11 13:00:00 18.2 45 Este 72 Este 0 -- -- 74
2019-06-11 12:00:00 17.4 31 Sudeste 77 Este 0 -- -- 75
2019-06-11 11:00:00 16.1 47 Este 78 Este 0 -- -- 75
2019-06-11 10:00:00 14.8 51 Este 79 Este 0 -- -- 80
2019-06-11 09:00:00 14.4 23 Sudeste 51 Este 0 -- -- 76
2019-06-11 08:00:00 13.6 31 Sudeste 68 Este 0 -- -- 80
2019-06-11 07:00:00 13.4 35 Sudeste 62 Este 0 -- -- 83
2019-06-11 06:00:00 14.1 10 Sur 71 Este 0 -- -- 71
2019-06-11 05:00:00 13.4 50 Este 81 Este 0 -- -- 69
2019-06-11 04:00:00 13.2 39 Este 75 Este 0 -- -- 86
2019-06-11 03:00:00 13.4 27 Sudeste 53 Sudeste 0 -- -- 85
2019-06-11 02:00:00 13.6 18 Sudeste 52 Sudeste 0 -- -- 82
2019-06-11 01:00:00 13.8 24 Sudeste 69 Este 0 -- -- 87
2019-06-11 00:00:00 14.3 31 Sudeste 63 Este 0 -- -- 89
2019-06-10 23:00:00 14.1 42 Este 68 Este 0 -- -- 81
2019-06-10 22:00:00 14.1 41 Este 70 Este 0 -- -- 87
2019-06-10 21:00:00 14.5 33 Sudeste 60 Este 0 -- -- 83
2019-06-10 20:00:00 16.4 23 Sudeste 53 Sudeste 0 -- -- 77
2019-06-10 19:00:00 17.1 25 Sudeste 65 Este 0 -- -- 71
2019-06-10 18:00:00 17 32 Sudeste 62 Sudeste 0 -- -- 73
2019-06-10 17:00:00 18.5 19 Sudeste 46 Sudeste 0 -- -- 70
2019-06-10 16:00:00 18.8 12 Sur 54 Sudeste 0 -- -- 66
2019-06-10 15:00:00 18.2 32 Este 77 Este 0 -- -- 66
2019-06-10 14:00:00 17.4 42 Este 67 Sudeste 0 -- -- 67
2019-06-10 13:00:00 17.3 30 Este 48 Este 0 -- -- 70
2019-06-10 12:00:00 17.5 22 Sudeste 60 Este 0 -- -- 71
2019-06-10 11:00:00 15.7 39 Este 62 Este 0 -- -- 75
2019-06-10 10:00:00 15 35 Este 60 Este 0 -- -- 77
2019-06-10 09:00:00 14.6 15 Sudeste 55 Este 0 -- -- 75
2019-06-10 08:00:00 13.1 38 Sudeste 71 Este 0 -- -- 84
2019-06-10 07:00:00 13.1 33 Sudeste 64 Sudeste 0 -- -- 84
2019-06-10 06:00:00 12.9 5 Este 17 Sudeste 0 -- -- 78
2019-06-10 05:00:00 13.4 12 Sur 61 Este 0 -- -- 86
2019-06-10 04:00:00 12.9 45 Este 72 Este 0 -- -- 87
2019-06-10 03:00:00 13.2 28 Sudeste 48 Sudeste 0 -- -- 83
2019-06-10 02:00:00 14.3 4 Sudoeste 42 Sudeste 0 -- -- 70
2019-06-10 01:00:00 13.2 28 Sudeste 72 Este 0 -- -- 86
2019-06-10 00:00:00 13.7 46 Este 75 Este 0 -- -- 85
2019-06-09 23:00:00 13.5 24 Sudeste 48 Sudeste 0 -- -- 84
2019-06-09 22:00:00 14 10 Sudeste 72 Este 0 -- -- 81
2019-06-09 21:00:00 13.9 48 Este 73 Este 0 -- -- 84
2019-06-09 20:00:00 15.3 41 Este 65 Este 0 -- -- 79
2019-06-09 19:00:00 17.1 24 Sudeste 72 Este 0 -- -- 71
2019-06-09 18:00:00 17 47 Este 73 Este 0 -- -- 68
2019-06-09 17:00:00 17.7 33 Sudeste 62 Sudeste 0 -- -- 66
2019-06-09 16:00:00 17.3 17 Sudeste 50 Sudeste 0 -- -- 71
2019-06-09 15:00:00 18.9 15 Sur 51 Sudeste 0 -- -- 62
2019-06-09 14:00:00 17.6 20 Sudeste 58 Este 0 -- -- 63
2019-06-09 13:00:00 17.2 22 Sudeste 52 Sudeste 0 -- -- 64
2019-06-09 12:00:00 16.5 19 Sudeste 58 Sudeste 0 -- -- 66
2019-06-09 11:00:00 15.4 21 Sudeste 49 Sudeste 0 -- -- 76
2019-06-09 10:00:00 14.6 23 Sudeste 51 Sudeste 0 -- -- 80
2019-06-09 09:00:00 13.6 16 Sudeste 56 Sudeste 0 -- -- 82
2019-06-09 08:00:00 13 26 Sudeste 52 Este 0 -- -- 78
2019-06-09 07:00:00 12.7 17 Sudeste 44 Sudeste 0 -- -- 80
2019-06-09 06:00:00 12.7 19 Sudeste 61 Este 0 -- -- 82
2019-06-09 05:00:00 12.8 36 Este 62 Este 0 -- -- 82
2019-06-09 04:00:00 12.8 24 Sudeste 47 Este 0 -- -- 79
2019-06-09 03:00:00 12.8 27 Este 64 Este 0 -- -- 81
2019-06-09 02:00:00 12.9 36 Este 64 Este 0 -- -- 80
2019-06-09 01:00:00 13.2 27 Sudeste 56 Este 0 -- -- 79
2019-06-09 00:00:00 13.6 23 Sudeste 60 Sudeste 0 -- -- 70
2019-06-08 23:00:00 13.5 32 Este 62 Este 0 -- -- 78
2019-06-08 22:00:00 13.7 34 Este 58 Este 0 -- -- 82
2019-06-08 21:00:00 14 32 Este 58 Este 0 -- -- 81
2019-06-08 20:00:00 15.7 29 Este 57 Sudeste 0 -- -- 76
2019-06-08 19:00:00 16.5 31 Este 56 Sudeste 0 -- -- 71
2019-06-08 18:00:00 17 27 Este 46 Este 0 -- -- 70
2019-06-08 17:00:00 16.9 15 Este 44 Este 0 -- -- 70
2019-06-08 16:00:00 17.3 27 Este 44 Este 0 -- -- 69
2019-06-08 15:00:00 17.1 16 Este 37 Nordeste 0 -- -- 74
2019-06-08 14:00:00 15.3 9 Noroeste 28 Este 0 -- -- 90
2019-06-08 13:00:00 16.8 8 Este 22 Nordeste 0 -- -- 83
2019-06-08 12:00:00 17.9 7 Nordeste 25 Este 0 -- -- 80
2019-06-08 11:00:00 16.4 5 Oeste 17 Este 0 -- -- 86
2019-06-08 10:00:00 16.8 6 Sudeste 27 Sudeste 0 -- -- 80
2019-06-08 09:00:00 15.5 8 Sudeste 36 Sudeste 0 -- -- 86
2019-06-08 08:00:00 14.7 16 Este 39 Este 0.2 -- -- 87
2019-06-08 07:00:00 14.6 19 Este 39 Este 0 -- -- 88
2019-06-08 06:00:00 15.4 20 Este 42 Sudeste 0 -- -- 79
2019-06-08 05:00:00 15 24 Este 41 Este 0 -- -- 84
2019-06-08 04:00:00 15.1 12 Sudeste 32 Sur 0 -- -- 82
2019-06-08 03:00:00 14.2 7 Sur 35 Este 0 -- -- 90
2019-06-08 02:00:00 15.3 11 Este 45 Este 0 -- -- 82
2019-06-08 01:00:00 15.2 21 Sudeste 44 Este 0 -- -- 80
2019-06-08 00:00:00 14.9 8 Sur 35 Sur 0 -- -- 79
2019-06-07 23:00:00 14.6 6 Sur 22 Sudeste 0 -- -- 86
2019-06-07 22:00:00 14.6 5 Sudoeste 18 Oeste 0 -- -- 87
2019-06-07 21:00:00 15.4 8 Sur 36 Sudeste 0 -- -- 82
2019-06-07 20:00:00 18 13 Sur 32 Sur 0 -- -- 71
2019-06-07 19:00:00 19.1 8 Sudoeste 35 Sudeste 0 -- -- 66
2019-06-07 18:00:00 20.4 12 Sudeste 35 Este 0 -- -- 59
2019-06-07 17:00:00 20.2 11 Sudoeste 28 Sur 0 -- -- 59
2019-06-07 16:00:00 19.5 10 Sudoeste 38 Este 0 -- -- 63
2019-06-07 15:00:00 18.8 14 Sur 45 Este 0 -- -- 67
2019-06-07 14:00:00 19 16 Sudeste 43 Sudeste 0 -- -- 63
2019-06-07 13:00:00 16.6 10 Sur 41 Este 0 -- -- 73
2019-06-07 12:00:00 14.5 16 Sur 40 Este 0 -- -- 88
2019-06-07 11:00:00 14.2 15 Sudeste 39 Sudeste 0 -- -- 88
2019-06-07 10:00:00 14.9 15 Sudeste 41 Sudeste 0 -- -- 78
2019-06-07 09:00:00 14.1 10 Sur 33 Sudeste 0 -- -- 75
2019-06-07 08:00:00 13.2 10 Sur 39 Sudeste 0 -- -- 80
2019-06-07 07:00:00 13 15 Sur 36 Sudeste 0 -- -- 83
2019-06-07 06:00:00 13.4 14 Sur 36 Sudeste 0 -- -- 85
2019-06-07 05:00:00 13.7 15 Sudeste 36 Este 0 -- -- 85
2019-06-07 04:00:00 13.6 19 Sudeste 44 Sudeste 0 -- -- 76
2019-06-07 03:00:00 13.5 19 Sur 44 Este 0 -- -- 71
2019-06-07 02:00:00 13.4 17 Sur 43 Este 0 -- -- 74
2019-06-07 01:00:00 13.3 24 Este 52 Sudeste 0 -- -- 78
2019-06-07 00:00:00 13.3 30 Este 50 Este 0 -- -- 80
2019-06-06 23:00:00 13.3 27 Sudeste 48 Este 0 -- -- 82
2019-06-06 22:00:00 13.5 27 Este 49 Este 0 -- -- 84
2019-06-06 21:00:00 13.8 19 Sudeste 50 Este 0 -- -- 79
2019-06-06 20:00:00 14.8 19 Sudeste 46 Sudeste 0 -- -- 77
2019-06-06 19:00:00 16.6 17 Sudeste 42 Este 0 -- -- 68
2019-06-06 18:00:00 17.8 21 Este 47 Este 0 -- -- 64
2019-06-06 17:00:00 17.6 22 Este 46 Este 0 -- -- 67
2019-06-06 16:00:00 18.5 21 Este 44 Este 0 -- -- 55
2019-06-06 15:00:00 18.2 23 Este 45 Este 0 -- -- 56
2019-06-06 14:00:00 17.6 26 Este 48 Nordeste 0 -- -- 59
2019-06-06 13:00:00 17.1 28 Este 46 Este 0 -- -- 65
2019-06-06 12:00:00 17 23 Este 43 Este 0 -- -- 59
2019-06-06 11:00:00 16 22 Este 39 Este 0 -- -- 72
2019-06-06 10:00:00 14.9 22 Este 37 Sudeste 0 -- -- 70
2019-06-06 09:00:00 13.3 19 Este 38 Este 0 -- -- 79
2019-06-06 08:00:00 13.1 21 Este 44 Este 0 -- -- 80
2019-06-06 07:00:00 13.2 26 Este 50 Este 0 -- -- 76
2019-06-06 06:00:00 13.4 26 Este 51 Este 0 -- -- 78
2019-06-06 05:00:00 13.6 14 Sudeste 42 Sudeste 0 -- -- 74
2019-06-06 04:00:00 14 15 Sudeste 42 Sudeste 0 -- -- 71
2019-06-06 03:00:00 14 14 Sur 41 Sudeste 0 -- -- 69
2019-06-06 02:00:00 13.9 17 Sudeste 49 Este 0 -- -- 74
2019-06-06 01:00:00 14.2 15 Sur 42 Sudeste 0 -- -- 80
2019-06-06 00:00:00 14.6 14 Sudeste 42 Este 0 -- -- 85
2019-06-05 23:00:00 14.6 14 Sudeste 41 Sur 0 -- -- 82
2019-06-05 22:00:00 14.5 15 Sudeste 36 Sudeste 0 -- -- 77
2019-06-05 21:00:00 14.7 20 Este 37 Sudeste 0 -- -- 80
2019-06-05 20:00:00 15.3 12 Este 33 Sudeste 0 -- -- 83
2019-06-05 19:00:00 17.4 15 Este 42 Sudeste 0 -- -- 74
2019-06-05 18:00:00 17.9 15 Nordeste 46 Este 0 -- -- 73
2019-06-05 17:00:00 19.8 21 Este 46 Este 0 -- -- 64
2019-06-05 16:00:00 19.5 25 Este 44 Este 0 -- -- 64
2019-06-05 15:00:00 19.5 26 Este 53 Este 0 -- -- 64
2019-06-05 14:00:00 19.2 28 Este 46 Este 0 -- -- 69
2019-06-05 13:00:00 18.7 25 Este 40 Este 0 -- -- 72
2019-06-05 12:00:00 19.8 13 Sudeste 38 Este 0 -- -- 65
2019-06-05 11:00:00 18.9 9 Sudeste 43 Sudeste 0 -- -- 68
2019-06-05 10:00:00 17.7 19 Sudeste 57 Este 0 -- -- 73
2019-06-05 09:00:00 16.4 38 Este 62 Este 0 -- -- 74
2019-06-05 08:00:00 16.2 24 Sudeste 47 Sudeste 0 -- -- 72
2019-06-05 07:00:00 16.5 10 Sur 40 Este 0 -- -- 67
2019-06-05 06:00:00 16.5 18 Sudeste 71 Este 0 -- -- 69
2019-06-05 05:00:00 16.4 45 Este 71 Este 0 -- -- 69
2019-06-05 04:00:00 15.1 36 Este 63 Este 0 -- -- 84
2019-06-05 03:00:00 16.7 14 Sudeste 58 Este 0 -- -- 64
2019-06-05 02:00:00 16.7 39 Este 65 Este 0 -- -- 66
2019-06-05 01:00:00 18.9 30 Este 55 Este 0 -- -- 50
2019-06-05 00:00:00 19.9 13 Sur 40 Sudeste 0 -- -- 39
2019-06-04 23:00:00 17.9 16 Sudeste 46 Este 0 -- -- 52
2019-06-04 22:00:00 19.4 25 Este 44 Sudeste 0 -- -- 38
2019-06-04 21:00:00 22.3 11 Sudeste 24 Sudeste 0 -- -- 26
2019-06-04 20:00:00 24.3 5 Oeste 47 Sudeste 0 -- -- 36
2019-06-04 19:00:00 24.7 16 Sudeste 35 Sudeste 0 -- -- 41
2019-06-04 18:00:00 26.7 10 Oeste 18 Oeste 0 -- -- 30
2019-06-04 17:00:00 26 12 Oeste 22 Noroeste 0 -- -- 36
2019-06-04 16:00:00 27.1 12 Sudoeste 24 Sur 0 -- -- 36
2019-06-04 15:00:00 26.7 8 Sudoeste 30 Oeste 0 -- -- 38
2019-06-04 14:00:00 24.6 15 Oeste 28 Nordeste 0 -- -- 51
2019-06-04 13:00:00 28.1 9 Sudoeste 25 Este 0 -- -- 20
2019-06-04 12:00:00 28.7 13 Este 29 Nordeste 0 -- -- 15
2019-06-04 11:00:00 27.9 12 Sudeste 46 Este 0 -- -- 27
2019-06-04 10:00:00 25.2 27 Este 45 Este 0 -- -- 22
2019-06-04 09:00:00 23.8 28 Este 50 Este 0 -- -- 22
2019-06-04 08:00:00 25.2 30 Este 49 Sudeste 0 -- -- 13
2019-06-04 07:00:00 23.6 31 Este 50 Este 0 -- -- 18
2019-06-04 06:00:00 23.5 35 Este 53 Sudeste 0 -- -- 21
2019-06-04 05:00:00 23.5 35 Este 57 Sudeste 0 -- -- 21
2019-06-04 04:00:00 23.3 35 Este 57 Este 0 -- -- 22
2019-06-04 03:00:00 23.9 37 Este 58 Este 0 -- -- 19
2019-06-04 02:00:00 24.1 37 Este 62 Este 0 -- -- 18
2019-06-04 01:00:00 24.1 41 Este 67 Sudeste 0 -- -- 21
2019-06-04 00:00:00 24.1 42 Este 66 Este 0 -- -- 21
2019-06-03 23:00:00 24.5 39 Este 63 Sudeste 0 -- -- 19
2019-06-03 22:00:00 24.2 38 Este 70 Este 0 -- -- 21
2019-06-03 21:00:00 24.2 43 Este 68 Este 0 -- -- 22
2019-06-03 20:00:00 25.4 40 Este 58 Sudeste 0 -- -- 21
2019-06-03 19:00:00 26.9 38 Este 58 Sudeste 0 -- -- 17
2019-06-03 18:00:00 27.9 37 Este 59 Sudeste 0 -- -- 17
2019-06-03 17:00:00 28 37 Este 60 Este 0 -- -- 17
2019-06-03 16:00:00 28.9 34 Este 51 Este 0 -- -- 15
2019-06-03 15:00:00 29.2 30 Este 48 Este 0 -- -- 14
2019-06-03 14:00:00 30.1 24 Este 44 Este 0 -- -- 16
2019-06-03 13:00:00 29 27 Este 44 Este 0 -- -- 18
2019-06-03 12:00:00 28.2 28 Este 40 Este 0 -- -- 20
2019-06-03 11:00:00 27.2 28 Este 48 Este 0 -- -- 21
2019-06-03 10:00:00 26.7 28 Este 47 Este 0 -- -- 20
2019-06-03 09:00:00 24.7 23 Este 34 Este 0 -- -- 19
2019-06-03 08:00:00 26.9 13 Sudeste 24 Sudeste 0 -- -- 17
2019-06-03 07:00:00 24.4 6 Sur 12 Este 0 -- -- 19
2019-06-03 06:00:00 24 6 Sur 26 Sudeste 0 -- -- 19
2019-06-03 05:00:00 26.3 22 Sudeste 38 Este 0 -- -- 10
2019-06-03 04:00:00 23.7 19 Sudeste 29 Este 0 -- -- 24
2019-06-03 03:00:00 24.5 6 Sudeste 17 Este 0 -- -- 26
2019-06-03 02:00:00 24.5 7 Este 17 Este 0 -- -- 28
2019-06-03 01:00:00 25.7 7 Sur 33 Este 0 -- -- 25
2019-06-03 00:00:00 27.4 20 Sudeste 42 Este 0 -- -- 19
2019-06-02 23:00:00 26.4 27 Este 44 Sudeste 0 -- -- 14
2019-06-02 22:00:00 25.2 24 Este 39 Este 0 -- -- 17
2019-06-02 21:00:00 25.3 21 Este 33 Sudeste 0 -- -- 24
2019-06-02 20:00:00 29.8 15 Este 28 Sudeste 0 -- -- 21
2019-06-02 19:00:00 29.9 6 Oeste 22 Nordeste 0 -- -- 24
2019-06-02 18:00:00 30.1 8 Sudoeste 29 Este 0 -- -- 27
2019-06-02 17:00:00 29.5 11 Noroeste 20 Oeste 0 -- -- 32
2019-06-02 16:00:00 29 9 Noroeste 21 Noroeste 0 -- -- 41
2019-06-02 15:00:00 28.2 9 Oeste 31 Sur 0 -- -- 43
2019-06-02 14:00:00 30.6 16 Sudoeste 33 Sur 0 -- -- 24
2019-06-02 13:00:00 28.5 17 Sudoeste 26 Sudoeste 0 -- -- 30
2019-06-02 12:00:00 26.6 12 Oeste 21 Oeste 0 -- -- 39
2019-06-02 11:00:00 24 10 Noroeste 19 Oeste 0 -- -- 57
2019-06-02 10:00:00 25.7 7 Sudoeste 24 Sur 0 -- -- 39
2019-06-02 09:00:00 20.7 5 Norte 21 Sur 0 -- -- 46
2019-06-02 08:00:00 18.4 4 Noroeste 11 Sudoeste 0 -- -- 59
2019-06-02 07:00:00 16.5 4 Sudeste 14 Sudoeste 0 -- -- 67
2019-06-02 06:00:00 18.1 5 Este 8 Este 0 -- -- 48
2019-06-02 05:00:00 14.4 5 Este 9 Este 0 -- -- 93
2019-06-02 04:00:00 14.6 4 Sudoeste 6 Sudoeste 0 -- -- 94
2019-06-02 03:00:00 15 0 Calma 9 Sudoeste 0 -- -- 93
2019-06-02 02:00:00 15.2 4 Sudoeste 25 Este 0 -- -- 92
2019-06-02 01:00:00 15.6 5 Sudoeste 9 Sudoeste 0 -- -- 89
2019-06-02 00:00:00 16.4 3 Nordeste 12 Oeste 0 -- -- 78
2019-06-01 23:00:00 17.5 4 Sudoeste 10 Oeste 0 -- -- 70
2019-06-01 22:00:00 18.5 5 Sudoeste 33 Este 0 -- -- 70
2019-06-01 21:00:00 25.3 17 Sudeste 36 Sudeste 0 -- -- 22
2019-06-01 20:00:00 24.5 5 Sudoeste 15 Sur 0 -- -- 47
2019-06-01 19:00:00 24.4 5 Sudoeste 17 Norte 0 -- -- 49
2019-06-01 18:00:00 21.1 11 Norte 24 Noroeste 0 -- -- 69
2019-06-01 17:00:00 21.1 10 Sudoeste 21 Sudoeste 0 -- -- 67
2019-06-01 16:00:00 24.1 13 Sudoeste 22 Sudoeste 0 -- -- 57
2019-06-01 15:00:00 23.2 11 Sudoeste 21 Oeste 0 -- -- 59
2019-06-01 14:00:00 22.8 12 Sudoeste 19 Sudoeste 0 -- -- 61
2019-06-01 13:00:00 22.5 9 Oeste 15 Oeste 0 -- -- 58
2019-06-01 12:00:00 18.9 9 Noroeste 19 Norte 0 -- -- 74
2019-06-01 11:00:00 18.1 10 Norte 17 Norte 0 -- -- 77
2019-06-01 10:00:00 20 5 Norte 12 Noroeste 0 -- -- 65
2019-06-01 09:00:00 20.9 4 Nordeste 7 Noroeste 0 -- -- 41
2019-06-01 08:00:00 20.3 3 Oeste 13 Noroeste 0 -- -- 26
2019-06-01 07:00:00 19 3 Sur 14 Sur 0 -- -- 27
2019-06-01 06:00:00 19.7 5 Nordeste 21 Este 0 -- -- 26
2019-06-01 05:00:00 24.4 20 Sudeste 45 Este 0 -- -- 15
2019-06-01 04:00:00 23.5 28 Este 41 Este 0 -- -- 20
2019-06-01 03:00:00 17.8 11 Sur 17 Sur 0 -- -- 36
2019-06-01 02:00:00 17.1 3 Nordeste 12 Noroeste 0 -- -- 52
2019-06-01 01:00:00 20.9 2 Sudeste 11 Sudoeste 0 -- -- 19
2019-06-01 00:00:00 21.4 6 Sur 10 Sudeste 0 -- -- 19
2019-05-31 23:00:00 23.9 7 Sudeste 31 Sudeste 0 -- -- 14
2019-05-31 22:00:00 22.4 12 Sudeste 24 Sudeste 0 -- -- 15
2019-05-31 21:00:00 25.1 6 Sudeste 27 Sudeste 0 -- -- 23
2019-05-31 20:00:00 26.1 5 Oeste 31 Este 0 -- -- 29
2019-05-31 19:00:00 27.4 7 Sudoeste 27 Sudeste 0 -- -- 16
2019-05-31 18:00:00 27.2 14 Sudeste 32 Sudeste 0 -- -- 18
2019-05-31 17:00:00 22.5 8 Sudoeste 17 Oeste 0 -- -- 60
2019-05-31 16:00:00 22.1 12 Sudoeste 20 Sudoeste 0 -- -- 57
2019-05-31 15:00:00 23.1 9 Sudoeste 19 Sudoeste 0 -- -- 52
2019-05-31 14:00:00 22.1 9 Oeste 18 Oeste 0 -- -- 56
2019-05-31 13:00:00 21.1 9 Oeste 18 Norte 0 -- -- 62
2019-05-31 12:00:00 19.5 8 Sudoeste 13 Sudoeste 0 -- -- 66
2019-05-31 11:00:00 19 6 Sudoeste 15 Noroeste 0 -- -- 67
2019-05-31 10:00:00 18 8 Norte 15 Sur 0 -- -- 67
2019-05-31 09:00:00 14.4 5 Sudoeste 10 Nordeste 0 -- -- 77
2019-05-31 08:00:00 13.9 6 Nordeste 13 Nordeste 0 -- -- 64
2019-05-31 07:00:00 17.4 6 Este 11 Este 0 -- -- 26
2019-05-31 06:00:00 18.4 7 Sudeste 18 Sur 0 -- -- 22
2019-05-31 05:00:00 13.1 3 Nordeste 7 Este 0 -- -- 83
2019-05-31 04:00:00 15.6 3 Sudoeste 9 Sudeste 0 -- -- 53
2019-05-31 03:00:00 18.3 3 Norte 9 Sudeste 0 -- -- 25
2019-05-31 02:00:00 20.6 5 Sur 37 Sudeste 0 -- -- 19
2019-05-31 01:00:00 21.9 22 Sudeste 37 Sudeste 0 -- -- 16
2019-05-31 00:00:00 14 3 Nordeste 9 Oeste 0 -- -- 68
2019-05-30 23:00:00 17.2 3 Sudeste 11 Sur 0 -- -- 41
2019-05-30 22:00:00 20.7 5 Sur 21 Sudeste 0 -- -- 22
2019-05-30 21:00:00 21.7 3 Sudeste 10 Este 0 -- -- 22
2019-05-30 20:00:00 19.4 4 Oeste 12 Oeste 0 -- -- 70
2019-05-30 19:00:00 20.1 6 Oeste 20 Sudoeste 0 -- -- 68
2019-05-30 18:00:00 21.1 12 Sudoeste 23 Sudoeste 0 -- -- 61
2019-05-30 17:00:00 22.5 14 Sudoeste 21 Sudoeste 0 -- -- 55
2019-05-30 16:00:00 22.2 10 Sudoeste 21 Oeste 0 -- -- 57
2019-05-30 15:00:00 20.8 9 Sudoeste 20 Sudoeste 0 -- -- 62
2019-05-30 14:00:00 19.2 9 Oeste 19 Sudoeste 0 -- -- 67
2019-05-30 13:00:00 18.4 10 Oeste 21 Oeste 0 -- -- 70
2019-05-30 12:00:00 17.6 11 Oeste 17 Oeste 0 -- -- 73
2019-05-30 11:00:00 18.1 10 Sudoeste 15 Sudoeste 0 -- -- 71
2019-05-30 10:00:00 18.8 6 Sudoeste 10 Oeste 0 -- -- 61
2019-05-30 09:00:00 16.6 6 Sudoeste 8 Sudoeste 0 -- -- 47
2019-05-30 08:00:00 15.3 7 Sur 11 Este 0 -- -- 42
2019-05-30 07:00:00 12.4 5 Sur 10 Sudoeste 0 -- -- 87
2019-05-30 06:00:00 13.2 5 Sudeste 18 Sudoeste 0 -- -- 58
2019-05-30 05:00:00 12.5 6 Sur 13 Nordeste 0 -- -- 82
2019-05-30 04:00:00 13.3 6 Nordeste 9 Este 0 -- -- 71
2019-05-30 03:00:00 15.2 3 Este 13 Sudoeste 0 -- -- 48
2019-05-30 02:00:00 16 6 Sur 13 Sudoeste 0 -- -- 35
2019-05-30 01:00:00 18.7 9 Sur 16 Sur 0 -- -- 32
2019-05-30 00:00:00 13.5 4 Sudoeste 9 Sudoeste 0 -- -- 90
2019-05-29 23:00:00 14.4 4 Sudoeste 8 Sudoeste 0 -- -- 80
2019-05-29 22:00:00 17.6 2 Sudoeste 11 Oeste 0 -- -- 48
2019-05-29 21:00:00 17.7 4 Sur 10 Sudoeste 0 -- -- 56
2019-05-29 20:00:00 18.3 7 Sudoeste 16 Oeste 0 -- -- 74
2019-05-29 19:00:00 19.1 9 Oeste 20 Sudoeste 0 -- -- 71
2019-05-29 18:00:00 19.9 10 Sudoeste 20 Sudoeste 0 -- -- 68
2019-05-29 17:00:00 19.7 9 Sudoeste 19 Oeste 0 -- -- 68
2019-05-29 16:00:00 19.1 9 Oeste 19 Oeste 0 -- -- 71
2019-05-29 15:00:00 18.9 12 Oeste 19 Noroeste 0 -- -- 70
2019-05-29 14:00:00 19.4 13 Oeste 19 Noroeste 0 -- -- 67
2019-05-29 13:00:00 18.3 10 Oeste 22 Sudoeste 0 -- -- 73
2019-05-29 12:00:00 18.8 13 Sudoeste 23 Sudoeste 0 -- -- 65
2019-05-29 11:00:00 18 11 Sudoeste 17 Sudoeste 0 -- -- 64
2019-05-29 10:00:00 16.2 9 Norte 13 Noroeste 0 -- -- 79
2019-05-29 09:00:00 15.2 8 Norte 12 Norte 0 -- -- 74
2019-05-29 08:00:00 16.9 4 Nordeste 14 Sur 0 -- -- 30
2019-05-29 07:00:00 17.4 7 Sudeste 13 Sur 0 -- -- 30
2019-05-29 06:00:00 13.9 0 Calma 8 Este 0 -- -- 78
2019-05-29 05:00:00 15.5 6 Sudoeste 10 Sudoeste 0 -- -- 65
2019-05-29 04:00:00 18.7 5 Sur 14 Sur 0 -- -- 31
2019-05-29 03:00:00 14.9 5 Sudoeste 12 Sur 0 -- -- 63
2019-05-29 02:00:00 17.2 4 Sudoeste 13 Sur 0 -- -- 53
2019-05-29 01:00:00 17.2 4 Sudeste 13 Sudoeste 0 -- -- 32
2019-05-29 00:00:00 14.4 2 Sur 6 Sur 0 -- -- 91
2019-05-28 23:00:00 14.7 3 Sur 20 Este 0 -- -- 87
2019-05-28 22:00:00 16.1 9 Este 19 Este 0 -- -- 54
2019-05-28 21:00:00 16.7 4 Noroeste 11 Noroeste 0 -- -- 82
2019-05-28 20:00:00 19.5 6 Noroeste 15 Noroeste 0 -- -- 71
2019-05-28 19:00:00 21.4 5 Noroeste 15 Oeste 0 -- -- 65
2019-05-28 18:00:00 21.4 10 Oeste 18 Sudoeste 0 -- -- 64
2019-05-28 17:00:00 22 8 Sudoeste 19 Sudoeste 0 -- -- 61
2019-05-28 16:00:00 23.4 7 Oeste 18 Noroeste 0 -- -- 58
2019-05-28 15:00:00 21.9 10 Norte 22 Oeste 0 -- -- 63
2019-05-28 14:00:00 22.2 6 Noroeste 18 Noroeste 0 -- -- 63
2019-05-28 13:00:00 20.3 6 Oeste 17 Noroeste 0 -- -- 68
2019-05-28 12:00:00 19.9 8 Oeste 14 Noroeste 0 -- -- 72
2019-05-28 11:00:00 21.2 6 Oeste 13 Oeste 0 -- -- 44
2019-05-28 10:00:00 23.6 8 Sur 23 Norte 0 -- -- 34
2019-05-28 09:00:00 19.3 3 Oeste 10 Sudoeste 0 -- -- 39
2019-05-28 08:00:00 17.1 6 Sur 11 Sur 0 -- -- 42
2019-05-28 07:00:00 16.2 3 Sudeste 22 Sudeste 0 -- -- 53
2019-05-28 06:00:00 20.1 15 Sudeste 39 Sudeste 0 -- -- 38
2019-05-28 05:00:00 19.8 19 Sudeste 32 Sudeste 0 -- -- 35
2019-05-28 04:00:00 17.6 6 Sudeste 30 Sudeste 0 -- -- 37
2019-05-28 03:00:00 18.5 15 Sudeste 43 Sudeste 0 -- -- 38
2019-05-28 02:00:00 19.1 31 Este 49 Este 0 -- -- 36
2019-05-28 01:00:00 19.1 22 Sudeste 40 Sudeste 0 -- -- 34
2019-05-28 00:00:00 19 23 Sudeste 45 Este 0 -- -- 34
2019-05-27 23:00:00 19.1 27 Este 45 Este 0 -- -- 33
2019-05-27 22:00:00 19.4 26 Este 49 Este 0 -- -- 33
2019-05-27 21:00:00 19.2 26 Sudeste 49 Este 0 -- -- 38
2019-05-27 20:00:00 20.9 28 Este 50 Este 0 -- -- 37
2019-05-27 19:00:00 22.6 24 Este 50 Sudeste 0 -- -- 34
2019-05-27 18:00:00 23.4 27 Este 48 Sudeste 0 -- -- 31
2019-05-27 17:00:00 24.2 21 Este 43 Sudeste 0 -- -- 29
2019-05-27 16:00:00 25.8 9 Este 36 Nordeste 0 -- -- 25
2019-05-27 15:00:00 25.7 11 Sudeste 32 Sudeste 0 -- -- 30
2019-05-27 14:00:00 24.6 18 Sudeste 43 Nordeste 0 -- -- 30
2019-05-27 13:00:00 23.5 12 Oeste 24 Este 0 -- -- 40
2019-05-27 12:00:00 22.7 8 Noroeste 17 Oeste 0 -- -- 42
2019-05-27 11:00:00 22.3 7 Noroeste 17 Oeste 0 -- -- 43
2019-05-27 10:00:00 20.2 13 Sudoeste 19 Sudoeste 0 -- -- 45
2019-05-27 09:00:00 19.2 11 Sur 29 Sur 0 -- -- 40
2019-05-27 08:00:00 17.8 13 Sur 33 Sudeste 0 -- -- 32
2019-05-27 07:00:00 18.9 19 Sudeste 44 Sudeste 0 -- -- 35
2019-05-27 06:00:00 18.6 28 Sudeste 45 Este 0 -- -- 38
2019-05-27 05:00:00 18 24 Sudeste 39 Sudeste 0 -- -- 39
2019-05-27 04:00:00 17.4 0 Calma 12 Sudeste 0 -- -- 41
2019-05-27 03:00:00 17 6 Sudeste 12 Sur 0 -- -- 41
2019-05-27 02:00:00 17.3 6 Sudeste 12 Sur 0 -- -- 39
2019-05-27 01:00:00 16.7 4 Sur 8 Sudeste 0 -- -- 42
2019-05-27 00:00:00 15.5 0 Calma 5 Sudeste 0 -- -- 65
2019-05-26 23:00:00 14.9 2 Sur 36 Este 0 -- -- 65
2019-05-26 22:00:00 16.5 6 Sudeste 26 Este 0 -- -- 53
2019-05-26 21:00:00 18.3 4 Sudeste 10 Este 0 -- -- 64
2019-05-26 20:00:00 21.2 5 Noroeste 14 Oeste 0 -- -- 57
2019-05-26 19:00:00 22.1 7 Oeste 43 Sudeste 0 -- -- 57
2019-05-26 18:00:00 18 29 Sudeste 63 Este 0 -- -- 67
2019-05-26 17:00:00 20.3 20 Sudeste 50 Este 0 -- -- 61
2019-05-26 16:00:00 21.1 8 Sudoeste 21 Sur 0 -- -- 61
2019-05-26 15:00:00 20.9 8 Sudoeste 24 Oeste 0 -- -- 60
2019-05-26 14:00:00 19.1 14 Sudeste 43 Este 0 -- -- 68
2019-05-26 13:00:00 19.2 13 Sudeste 37 Este 0 -- -- 66
2019-05-26 12:00:00 21 6 Sudoeste 35 Este 0 -- -- 49
2019-05-26 11:00:00 19.5 13 Este 34 Este 0 -- -- 63
2019-05-26 10:00:00 17 14 Sudeste 41 Este 0 -- -- 63
2019-05-26 09:00:00 14.6 18 Sudeste 53 Sudeste 0 -- -- 73
2019-05-26 08:00:00 13.7 26 Sudeste 49 Sudeste 0 -- -- 72
2019-05-26 07:00:00 12.3 6 Sur 18 Este 0 -- -- 85
2019-05-26 06:00:00 11.7 4 Sur 15 Nordeste 0 -- -- 90
2019-05-26 05:00:00 12.7 6 Sur 47 Sudeste 0 -- -- 88
2019-05-26 04:00:00 13.2 26 Sudeste 59 Este 0 -- -- 82
2019-05-26 03:00:00 13.8 19 Sudeste 49 Sudeste 0 -- -- 73
2019-05-26 02:00:00 16.7 6 Sur 66 Este 0 -- -- 45
2019-05-26 01:00:00 13.5 51 Este 77 Este 0 -- -- 87
2019-05-26 00:00:00 13.7 45 Este 66 Este 0 -- -- 80
2019-05-25 23:00:00 16.7 19 Sudeste 66 Este 0 -- -- 54
2019-05-25 22:00:00 14 44 Este 75 Este 0 -- -- 82
2019-05-25 21:00:00 14.4 46 Este 67 Este 0 -- -- 84
2019-05-25 20:00:00 20.4 14 Sudeste 29 Sudeste 0 -- -- 42
2019-05-25 19:00:00 19.4 10 Sudoeste 22 Sur 0 -- -- 75
2019-05-25 18:00:00 20.9 8 Sudoeste 59 Este 0 -- -- 64
2019-05-25 17:00:00 17.4 35 Este 65 Este 0 -- -- 80
2019-05-25 16:00:00 19.9 24 Sudeste 54 Sudeste 0 -- -- 68
2019-05-25 15:00:00 20.4 10 Oeste 21 Sudoeste 0 -- -- 67
2019-05-25 14:00:00 19.6 11 Sudoeste 24 Sudoeste 0 -- -- 71
2019-05-25 13:00:00 18.8 21 Sudeste 60 Este 0 -- -- 74
2019-05-25 12:00:00 17.8 27 Sudeste 46 Este 0 -- -- 73
2019-05-25 11:00:00 20 6 Sur 44 Sudeste 0 -- -- 63
2019-05-25 10:00:00 18.1 6 Oeste 67 Este 0 -- -- 63
2019-05-25 09:00:00 13.8 42 Este 69 Este 0 -- -- 89
2019-05-25 08:00:00 14.3 3 Sudoeste 11 Oeste 0 -- -- 79
2019-05-25 07:00:00 15.3 4 Sudoeste 60 Este 0 -- -- 68
2019-05-25 06:00:00 15 39 Este 69 Este 0 -- -- 65
2019-05-25 05:00:00 16 6 Sudoeste 36 Sudeste 0 -- -- 58
2019-05-25 04:00:00 21 19 Sudeste 51 Sudeste 0 -- -- 30
2019-05-25 03:00:00 20.3 33 Este 67 Este 0 -- -- 26
2019-05-25 02:00:00 18.2 46 Este 66 Este 0 -- -- 45
2019-05-25 01:00:00 20.7 39 Este 60 Este 0 -- -- 35
2019-05-25 00:00:00 20.7 36 Este 69 Este 0 -- -- 34